Time;durP1;ratioP1;P1;durP2;ratioP2;P2;SDS_P1;SDS_P2;PMS_P1;PMS_P2;Temp;Humidity;BMP_temperature;BMP_pressure;BME280_temperature;BME280_humidity;BME280_pressure;Samples;Min_cycle;Max_cycle;Signal;HPM_P1;HPM_P2
2023/05/06 00:01:43;;;;;;;12.35;8.15;;;;;;;;;;5069546;28;20499;-58
2023/05/06 00:04:09;;;;;;;11.80;8.40;;;;;;;;;;5083401;28;20457;-59
2023/05/06 00:06:35;;;;;;;9.57;8.57;;;;;;;;;;5082622;28;20053;-58
2023/05/06 00:09:02;;;;;;;9.82;8.77;;;;;;;;;;5078115;28;20063;-58
2023/05/06 00:11:29;;;;;;;10.70;8.30;;;;;;;;;;5082344;28;20539;-57
2023/05/06 00:13:55;;;;;;;10.65;8.10;;;;;;;;;;5084799;28;20053;-60
2023/05/06 00:16:22;;;;;;;10.93;8.30;;;;;;;;;;5086202;28;20582;-59
2023/05/06 00:18:48;;;;;;;11.63;8.73;;;;;;;;;;5084204;28;20065;-57
2023/05/06 00:21:15;;;;;;;11.45;8.45;;;;;;;;;;5075605;28;20084;-60
2023/05/06 00:23:41;;;;;;;11.38;8.57;;;;;;;;;;5077781;28;20048;-58
2023/05/06 00:26:08;;;;;;;10.50;8.40;;;;;;;;;;5084416;28;20040;-58
2023/05/06 00:28:34;;;;;;;11.65;9.80;;;;;;;;;;5083926;28;20056;-59
2023/05/06 00:31:01;;;;;;;12.55;9.27;;;;;;;;;;5086052;28;20051;-58
2023/05/06 00:33:27;;;;;;;11.07;9.02;;;;;;;;;;5085151;28;20143;-56
2023/05/06 00:35:54;;;;;;;11.18;8.70;;;;;;;;;;5083757;28;20104;-59
2023/05/06 00:38:20;;;;;;;14.40;10.60;;;;;;;;;;5081600;28;20483;-58
2023/05/06 00:40:47;;;;;;;12.77;9.48;;;;;;;;;;5084770;28;20058;-58
2023/05/06 00:43:13;;;;;;;11.38;8.35;;;;;;;;;;5082755;28;20067;-59
2023/05/06 00:45:40;;;;;;;13.18;9.00;;;;;;;;;;5085505;28;20052;-58
2023/05/06 00:48:06;;;;;;;12.63;9.27;;;;;;;;;;5084425;28;20478;-58
2023/05/06 00:50:33;;;;;;;11.20;8.25;;;;;;;;;;5083624;28;20049;-58
2023/05/06 00:53:01;;;;;;;12.93;9.40;;;;;;;;;;5082574;28;20068;-58
2023/05/06 00:55:27;;;;;;;13.57;9.32;;;;;;;;;;5084682;28;20552;-60
2023/05/06 00:57:54;;;;;;;12.75;9.00;;;;;;;;;;5074696;28;20052;-59
2023/05/06 01:00:20;;;;;;;11.25;8.90;;;;;;;;;;5069258;28;20088;-58
2023/05/06 01:02:47;;;;;;;11.23;9.10;;;;;;;;;;5083014;28;20137;-57
2023/05/06 01:05:19;;;;;;;10.20;8.70;;;;;;;;;;5084887;28;20092;-56
2023/05/06 01:08:04;;;;;;;13.68;9.65;;;;;;;;;;5084067;28;20117;-60
2023/05/06 01:10:31;;;;;;;13.17;9.57;;;;;;;;;;5082499;28;20052;-57
2023/05/06 01:13:16;;;;;;;14.07;9.50;;;;;;;;;;5083715;28;20495;-59
2023/05/06 01:15:42;;;;;;;11.45;9.23;;;;;;;;;;5085184;28;20053;-58
2023/05/06 01:18:16;;;;;;;10.82;8.45;;;;;;;;;;5082551;28;20056;-59
2023/05/06 01:20:46;;;;;;;13.20;8.90;;;;;;;;;;5083419;28;20057;-59
2023/05/06 01:23:13;;;;;;;11.50;9.68;;;;;;;;;;5082458;28;20063;-58
2023/05/06 01:25:40;;;;;;;12.32;10.00;;;;;;;;;;5087023;28;20155;-59
2023/05/06 01:28:09;;;;;;;12.80;9.43;;;;;;;;;;5082110;28;20567;-56
2023/05/06 01:30:47;;;;;;;13.63;10.65;;;;;;;;;;5082863;28;20060;-57
2023/05/06 01:33:34;;;;;;;12.20;10.13;;;;;;;;;;5081370;28;20060;-59
2023/05/06 01:36:10;;;;;;;12.00;9.85;;;;;;;;;;5083203;28;20056;-58
2023/05/06 01:38:51;;;;;;;12.77;10.15;;;;;;;;;;5082037;28;20226;-59
2023/05/06 01:41:19;;;;;;;13.48;9.52;;;;;;;;;;5082479;28;20139;-59
2023/05/06 01:43:46;;;;;;;14.30;9.77;;;;;;;;;;5082765;28;20734;-58
2023/05/06 01:46:16;;;;;;;13.43;10.27;;;;;;;;;;5084015;28;20445;-59
2023/05/06 01:48:44;;;;;;;11.68;9.68;;;;;;;;;;5081300;28;20075;-58
2023/05/06 01:51:10;;;;;;;12.15;9.38;;;;;;;;;;5074642;28;20431;-58
2023/05/06 01:53:37;;;;;;;13.07;10.32;;;;;;;;;;5098459;28;20076;-57
2023/05/06 01:56:04;;;;;;;11.45;9.60;;;;;;;;;;5087848;28;20134;-60
2023/05/06 01:58:30;;;;;;;11.88;9.52;;;;;;;;;;5082110;28;20549;-58
2023/05/06 02:00:56;;;;;;;13.82;10.80;;;;;;;;;;5083502;28;20591;-59
2023/05/06 02:03:23;;;;;;;14.52;10.50;;;;;;;;;;5078645;28;20055;-56
2023/05/06 02:05:49;;;;;;;17.75;11.00;;;;;;;;;;5081645;28;20298;-59
2023/05/06 02:08:16;;;;;;;14.98;10.57;;;;;;;;;;5082815;28;20200;-58
2023/05/06 02:10:42;;;;;;;13.10;10.65;;;;;;;;;;5082334;28;20056;-56
2023/05/06 02:13:09;;;;;;;12.60;11.00;;;;;;;;;;5079562;28;20053;-59
2023/05/06 02:15:36;;;;;;;13.80;11.77;;;;;;;;;;5083543;28;20110;-59
2023/05/06 02:18:02;;;;;;;14.85;11.27;;;;;;;;;;5076355;28;20052;-56
2023/05/06 02:20:29;;;;;;;18.30;11.38;;;;;;;;;;5082505;28;20230;-56
2023/05/06 02:22:56;;;;;;;15.02;11.68;;;;;;;;;;5082554;28;20059;-58
2023/05/06 02:25:22;;;;;;;15.27;11.30;;;;;;;;;;5082819;28;20108;-58
2023/05/06 02:27:48;;;;;;;14.05;11.88;;;;;;;;;;5075250;28;20150;-58
2023/05/06 02:30:15;;;;;;;15.35;11.75;;;;;;;;;;5079982;28;20152;-57
2023/05/06 02:32:41;;;;;;;17.73;12.57;;;;;;;;;;5077003;28;20511;-58
2023/05/06 02:35:08;;;;;;;18.83;12.43;;;;;;;;;;5080921;28;20135;-58
2023/05/06 02:37:34;;;;;;;15.40;12.48;;;;;;;;;;5082088;28;20312;-59
2023/05/06 02:40:00;;;;;;;16.00;12.45;;;;;;;;;;5082386;28;20064;-59
2023/05/06 02:42:27;;;;;;;14.02;12.10;;;;;;;;;;5086198;28;20052;-58
2023/05/06 02:44:54;;;;;;;13.73;11.93;;;;;;;;;;5086027;28;20055;-58
2023/05/06 02:47:20;;;;;;;14.63;11.90;;;;;;;;;;5086989;28;20433;-60
2023/05/06 02:49:47;;;;;;;16.50;12.52;;;;;;;;;;5085931;28;20049;-59
2023/05/06 02:52:13;;;;;;;16.02;12.93;;;;;;;;;;5085077;28;20530;-58
2023/05/06 02:54:39;;;;;;;17.05;12.02;;;;;;;;;;5085992;28;20080;-60
2023/05/06 02:57:06;;;;;;;16.65;12.73;;;;;;;;;;5087765;28;20127;-59
2023/05/06 02:59:33;;;;;;;16.50;11.82;;;;;;;;;;5079658;28;20147;-57
2023/05/06 03:02:00;;;;;;;16.17;12.35;;;;;;;;;;5084874;28;20455;-57
2023/05/06 03:04:26;;;;;;;15.40;12.98;;;;;;;;;;5085399;28;20904;-59
2023/05/06 03:06:52;;;;;;;17.00;12.95;;;;;;;;;;5086571;28;20138;-58
2023/05/06 03:09:19;;;;;;;18.50;13.45;;;;;;;;;;5084864;28;20148;-58
2023/05/06 03:11:45;;;;;;;19.80;14.07;;;;;;;;;;5085750;28;20057;-59
2023/05/06 03:14:11;;;;;;;17.77;13.82;;;;;;;;;;5085258;28;20052;-59
2023/05/06 03:16:38;;;;;;;17.75;13.68;;;;;;;;;;5088724;28;20059;-59
2023/05/06 03:19:04;;;;;;;21.95;13.85;;;;;;;;;;5080503;28;20061;-59
2023/05/06 03:21:30;;;;;;;19.52;14.52;;;;;;;;;;5086012;28;20538;-58
2023/05/06 03:23:57;;;;;;;15.80;12.70;;;;;;;;;;5081602;28;20048;-58
2023/05/06 03:26:24;;;;;;;18.60;14.30;;;;;;;;;;5085933;28;20638;-59
2023/05/06 03:28:51;;;;;;;17.05;13.30;;;;;;;;;;5084832;28;20140;-59
2023/05/06 03:31:17;;;;;;;18.95;13.50;;;;;;;;;;5084156;28;20055;-58
2023/05/06 03:33:43;;;;;;;17.83;13.45;;;;;;;;;;5085219;28;20064;-59
2023/05/06 03:36:11;;;;;;;17.77;13.65;;;;;;;;;;5083021;28;20135;-56
2023/05/06 03:38:38;;;;;;;17.98;14.45;;;;;;;;;;5083119;28;20049;-56
2023/05/06 03:41:04;;;;;;;19.05;14.85;;;;;;;;;;5083337;28;20056;-58
2023/05/06 03:43:30;;;;;;;23.17;15.18;;;;;;;;;;5084078;28;20618;-59
2023/05/06 03:45:57;;;;;;;19.75;14.65;;;;;;;;;;5088834;28;20048;-60
2023/05/06 03:48:24;;;;;;;17.00;14.07;;;;;;;;;;5085477;28;20061;-59
2023/05/06 03:50:51;;;;;;;17.75;14.88;;;;;;;;;;5083742;28;20044;-58
2023/05/06 03:53:17;;;;;;;18.25;14.52;;;;;;;;;;5085490;28;20053;-59
2023/05/06 03:55:44;;;;;;;19.92;15.52;;;;;;;;;;5083335;28;20055;-59
2023/05/06 03:58:10;;;;;;;19.83;15.30;;;;;;;;;;5087291;28;20122;-59
2023/05/06 04:00:36;;;;;;;20.75;15.40;;;;;;;;;;5083197;28;20627;-58
2023/05/06 04:03:03;;;;;;;16.80;14.35;;;;;;;;;;5084755;28;20067;-59
2023/05/06 04:05:29;;;;;;;17.00;14.40;;;;;;;;;;5084014;28;20281;-58
2023/05/06 04:07:56;;;;;;;20.00;14.63;;;;;;;;;;5084878;28;20049;-59
2023/05/06 04:10:22;;;;;;;17.90;15.02;;;;;;;;;;5083255;28;20136;-58
2023/05/06 04:12:49;;;;;;;18.25;14.65;;;;;;;;;;5073660;28;20068;-58
2023/05/06 04:15:15;;;;;;;19.60;15.88;;;;;;;;;;5083397;28;20052;-58
2023/05/06 04:17:41;;;;;;;21.52;15.75;;;;;;;;;;5077261;28;20063;-57
2023/05/06 04:20:10;;;;;;;17.70;14.45;;;;;;;;;;5083518;28;20581;-58
2023/05/06 04:22:37;;;;;;;18.42;14.30;;;;;;;;;;5082374;28;20570;-59
2023/05/06 04:25:04;;;;;;;18.63;13.55;;;;;;;;;;5084730;28;20519;-59
2023/05/06 04:27:31;;;;;;;20.25;15.20;;;;;;;;;;5082115;28;20061;-59
2023/05/06 04:29:57;;;;;;;21.52;15.50;;;;;;;;;;5082353;28;20056;-58
2023/05/06 04:32:24;;;;;;;20.70;15.88;;;;;;;;;;5083821;28;20115;-59
2023/05/06 04:34:52;;;;;;;18.90;14.90;;;;;;;;;;5084278;28;20056;-57
2023/05/06 04:37:18;;;;;;;20.58;15.20;;;;;;;;;;5080775;28;20056;-58
2023/05/06 04:39:45;;;;;;;18.85;15.68;;;;;;;;;;5084843;28;20059;-59
2023/05/06 04:42:13;;;;;;;19.83;15.73;;;;;;;;;;5082595;28;20052;-59
2023/05/06 04:44:40;;;;;;;17.77;14.85;;;;;;;;;;5088430;28;20063;-57
2023/05/06 04:47:06;;;;;;;19.27;15.27;;;;;;;;;;5115901;27;20586;-57
2023/05/06 04:49:33;;;;;;;19.48;15.98;;;;;;;;;;5082022;28;20053;-59
2023/05/06 04:51:59;;;;;;;18.42;15.70;;;;;;;;;;5083458;28;20194;-57
2023/05/06 04:54:26;;;;;;;19.27;16.10;;;;;;;;;;5083627;28;20511;-59
2023/05/06 04:56:53;;;;;;;20.20;16.27;;;;;;;;;;5085047;28;20578;-57
2023/05/06 04:59:19;;;;;;;28.88;16.67;;;;;;;;;;5083362;28;20084;-58
2023/05/06 05:01:46;;;;;;;20.55;16.00;;;;;;;;;;5082908;28;20182;-55
2023/05/06 05:04:12;;;;;;;22.42;16.77;;;;;;;;;;5083392;28;20761;-59
2023/05/06 05:06:38;;;;;;;23.42;17.17;;;;;;;;;;5082620;28;20056;-58
2023/05/06 05:09:05;;;;;;;20.65;16.17;;;;;;;;;;5094542;28;20051;-59
2023/05/06 05:11:31;;;;;;;22.45;16.48;;;;;;;;;;5082239;28;20530;-60
2023/05/06 05:13:57;;;;;;;22.63;18.08;;;;;;;;;;5083756;28;20522;-58
2023/05/06 05:16:27;;;;;;;22.90;16.98;;;;;;;;;;5081452;28;20044;-58
2023/05/06 05:18:54;;;;;;;22.92;17.77;;;;;;;;;;5084983;28;20091;-60
2023/05/06 05:21:20;;;;;;;24.13;17.88;;;;;;;;;;5082524;28;20114;-58
2023/05/06 05:23:47;;;;;;;23.65;17.88;;;;;;;;;;5082629;28;20593;-58
2023/05/06 05:26:13;;;;;;;23.02;17.45;;;;;;;;;;5083031;28;20052;-60
2023/05/06 05:28:40;;;;;;;23.83;18.00;;;;;;;;;;5083713;28;20486;-58
2023/05/06 05:31:06;;;;;;;24.25;17.92;;;;;;;;;;5083006;28;20063;-58
2023/05/06 05:33:35;;;;;;;22.80;17.65;;;;;;;;;;5084706;28;20114;-59
2023/05/06 05:36:02;;;;;;;24.58;16.98;;;;;;;;;;5087302;28;20118;-59
2023/05/06 05:38:29;;;;;;;22.20;18.02;;;;;;;;;;5083633;28;20052;-58
2023/05/06 05:40:55;;;;;;;24.60;17.35;;;;;;;;;;5081566;28;20056;-59
2023/05/06 05:43:24;;;;;;;23.63;17.70;;;;;;;;;;5063617;28;20053;-59
2023/05/06 05:45:51;;;;;;;21.70;17.73;;;;;;;;;;5076522;28;20052;-59
2023/05/06 05:48:17;;;;;;;23.02;17.63;;;;;;;;;;5084342;28;20106;-58
2023/05/06 05:50:43;;;;;;;23.23;18.10;;;;;;;;;;5083882;28;20122;-59
2023/05/06 05:53:10;;;;;;;20.65;16.90;;;;;;;;;;5081485;28;20483;-59
2023/05/06 05:55:36;;;;;;;24.42;18.40;;;;;;;;;;5082419;28;20075;-59
2023/05/06 05:58:02;;;;;;;21.58;17.42;;;;;;;;;;5079039;28;20112;-60
2023/05/06 06:00:29;;;;;;;20.95;17.50;;;;;;;;;;5081690;27;20059;-57
2023/05/06 06:02:55;;;;;;;21.60;16.95;;;;;;;;;;5079614;28;20084;-60
2023/05/06 06:05:22;;;;;;;20.17;17.02;;;;;;;;;;5081909;28;20052;-58
2023/05/06 06:07:48;;;;;;;21.33;16.88;;;;;;;;;;5081317;28;20060;-59
2023/05/06 06:10:14;;;;;;;20.83;16.58;;;;;;;;;;5081369;28;20088;-59
2023/05/06 06:12:42;;;;;;;22.75;16.55;;;;;;;;;;5082884;28;20056;-60
2023/05/06 06:15:09;;;;;;;21.08;16.90;;;;;;;;;;5080883;28;21825;-60
2023/05/06 06:17:36;;;;;;;20.75;17.20;;;;;;;;;;5080883;28;20056;-60
2023/05/06 06:20:03;;;;;;;21.27;17.42;;;;;;;;;;5081866;28;20146;-59
2023/05/06 06:22:30;;;;;;;19.55;16.52;;;;;;;;;;5080334;28;20048;-56
2023/05/06 06:24:56;;;;;;;20.70;17.67;;;;;;;;;;5082167;28;20110;-58
2023/05/06 06:27:23;;;;;;;21.15;17.25;;;;;;;;;;5078675;28;20506;-59
2023/05/06 06:29:49;;;;;;;21.95;17.13;;;;;;;;;;5081275;28;20049;-58
2023/05/06 06:32:16;;;;;;;22.17;17.60;;;;;;;;;;5076819;28;20098;-59
2023/05/06 06:34:42;;;;;;;19.63;16.42;;;;;;;;;;5061933;28;20532;-59
2023/05/06 06:37:09;;;;;;;19.70;17.17;;;;;;;;;;5065213;28;20053;-60
2023/05/06 06:39:35;;;;;;;22.58;17.58;;;;;;;;;;5078940;28;20057;-58
2023/05/06 06:42:05;;;;;;;24.73;18.40;;;;;;;;;;5081851;28;20063;-57
2023/05/06 06:44:32;;;;;;;23.85;18.23;;;;;;;;;;5082933;28;20510;-58
2023/05/06 06:46:59;;;;;;;20.98;16.75;;;;;;;;;;5082606;28;20672;-58
2023/05/06 06:49:26;;;;;;;20.33;17.25;;;;;;;;;;5077363;28;20044;-59
2023/05/06 06:51:53;;;;;;;20.95;15.75;;;;;;;;;;5071707;28;20053;-59
2023/05/06 06:54:19;;;;;;;19.20;16.90;;;;;;;;;;5077911;28;20087;-58
2023/05/06 06:56:45;;;;;;;21.73;16.85;;;;;;;;;;5082242;28;20569;-59
2023/05/06 06:59:12;;;;;;;24.35;17.80;;;;;;;;;;5077326;28;20056;-59
2023/05/06 07:01:39;;;;;;;18.67;16.42;;;;;;;;;;5081807;28;20535;-60
2023/05/06 07:04:06;;;;;;;20.55;17.48;;;;;;;;;;5078575;28;20052;-59
2023/05/06 07:06:32;;;;;;;22.55;17.35;;;;;;;;;;5080777;28;20057;-59
2023/05/06 07:08:59;;;;;;;23.75;18.00;;;;;;;;;;5081562;28;20060;-57
2023/05/06 07:11:25;;;;;;;19.27;16.02;;;;;;;;;;5081464;28;20057;-59
2023/05/06 07:13:51;;;;;;;24.83;18.80;;;;;;;;;;5072730;28;20135;-59
2023/05/06 07:16:18;;;;;;;21.35;18.08;;;;;;;;;;5068067;28;20049;-59
2023/05/06 07:18:44;;;;;;;20.70;17.70;;;;;;;;;;5080584;28;20060;-58
2023/05/06 07:21:10;;;;;;;22.17;17.98;;;;;;;;;;5082894;28;21256;-59
2023/05/06 07:23:37;;;;;;;23.63;17.98;;;;;;;;;;5079828;28;20513;-57
2023/05/06 07:26:03;;;;;;;26.35;18.27;;;;;;;;;;5082825;28;20052;-59
2023/05/06 07:28:30;;;;;;;21.02;18.13;;;;;;;;;;5084023;28;20142;-59
2023/05/06 07:30:56;;;;;;;23.63;19.00;;;;;;;;;;5084972;28;20578;-60
2023/05/06 07:33:23;;;;;;;22.00;18.08;;;;;;;;;;5077176;28;20052;-58
2023/05/06 07:35:49;;;;;;;23.67;19.00;;;;;;;;;;5082264;28;20051;-59
2023/05/06 07:38:15;;;;;;;23.33;18.65;;;;;;;;;;5083233;28;20055;-59
2023/05/06 07:40:41;;;;;;;24.75;19.42;;;;;;;;;;5081668;28;20075;-58
2023/05/06 07:43:08;;;;;;;28.73;19.23;;;;;;;;;;5082557;28;20106;-59
2023/05/06 07:45:35;;;;;;;25.08;18.90;;;;;;;;;;5082732;28;20135;-57
2023/05/06 07:48:01;;;;;;;27.95;19.83;;;;;;;;;;5085054;28;20509;-58
2023/05/06 07:50:28;;;;;;;24.85;17.67;;;;;;;;;;5080082;28;20057;-57
2023/05/06 07:52:55;;;;;;;24.23;19.33;;;;;;;;;;5085738;28;20136;-58
2023/05/06 07:55:21;;;;;;;26.17;19.90;;;;;;;;;;5082874;28;20515;-59
2023/05/06 07:57:51;;;;;;;23.75;19.20;;;;;;;;;;5079286;28;20497;-59
2023/05/06 08:00:17;;;;;;;27.60;20.67;;;;;;;;;;5081610;28;20667;-60
2023/05/06 08:02:45;;;;;;;26.90;20.02;;;;;;;;;;5079931;28;20515;-59
2023/05/06 08:05:12;;;;;;;26.70;20.17;;;;;;;;;;5082680;28;20135;-58
2023/05/06 08:07:40;;;;;;;25.20;19.63;;;;;;;;;;5083684;28;20533;-59
2023/05/06 08:10:07;;;;;;;26.77;20.92;;;;;;;;;;5083488;28;20506;-59
2023/05/06 08:12:34;;;;;;;26.25;20.35;;;;;;;;;;5084885;28;20135;-59
2023/05/06 08:15:00;;;;;;;29.63;21.33;;;;;;;;;;5084737;28;20457;-58
2023/05/06 08:17:27;;;;;;;31.38;22.58;;;;;;;;;;5082067;28;20060;-58
2023/05/06 08:19:54;;;;;;;28.48;21.95;;;;;;;;;;5081425;28;20060;-59
2023/05/06 08:22:20;;;;;;;28.73;19.83;;;;;;;;;;5084733;28;20045;-58
2023/05/06 08:24:47;;;;;;;35.13;23.70;;;;;;;;;;5070337;28;20564;-59
2023/05/06 08:27:13;;;;;;;27.55;21.17;;;;;;;;;;5065468;28;20589;-57
2023/05/06 08:29:39;;;;;;;32.75;21.42;;;;;;;;;;5084703;28;20557;-60
2023/05/06 08:32:06;;;;;;;27.17;21.70;;;;;;;;;;5084714;28;20745;-59
2023/05/06 08:34:33;;;;;;;29.75;21.58;;;;;;;;;;5084131;28;20640;-60
2023/05/06 08:37:00;;;;;;;28.10;22.30;;;;;;;;;;5083227;28;20150;-59
2023/05/06 08:39:27;;;;;;;36.67;22.95;;;;;;;;;;5084844;28;20606;-59
2023/05/06 08:41:55;;;;;;;28.63;20.85;;;;;;;;;;5082391;28;20618;-60
2023/05/06 08:44:22;;;;;;;32.42;22.48;;;;;;;;;;5084311;28;20052;-59
2023/05/06 08:46:48;;;;;;;30.02;21.17;;;;;;;;;;5082901;28;20134;-58
2023/05/06 08:49:15;;;;;;;31.33;23.45;;;;;;;;;;5082855;28;20052;-60
2023/05/06 08:51:45;;;;;;;37.38;22.95;;;;;;;;;;5083655;28;20048;-59
2023/05/06 08:54:11;;;;;;;27.30;21.60;;;;;;;;;;5084480;28;20056;-58
2023/05/06 08:56:43;;;;;;;30.08;22.23;;;;;;;;;;5082701;28;20058;-60
2023/05/06 08:59:09;;;;;;;28.88;21.90;;;;;;;;;;5081751;28;20048;-59
2023/05/06 09:01:36;;;;;;;28.92;21.52;;;;;;;;;;5083475;28;20056;-60
2023/05/06 09:04:06;;;;;;;27.75;20.88;;;;;;;;;;5083033;28;20159;-59
2023/05/06 09:06:33;;;;;;;31.98;21.02;;;;;;;;;;5083494;28;20147;-60
2023/05/06 09:08:59;;;;;;;27.73;19.60;;;;;;;;;;5083655;28;20059;-56
2023/05/06 09:11:28;;;;;;;26.73;19.27;;;;;;;;;;5084769;28;20053;-59
2023/05/06 09:14:09;;;;;;;24.25;17.77;;;;;;;;;;5088837;28;20105;-60
2023/05/06 09:16:36;;;;;;;25.40;16.88;;;;;;;;;;5083343;28;20056;-59
2023/05/06 09:19:03;;;;;;;25.15;18.05;;;;;;;;;;5083460;28;21001;-57
2023/05/06 09:21:33;;;;;;;24.70;17.45;;;;;;;;;;5083518;28;20052;-60
2023/05/06 09:24:00;;;;;;;23.65;17.17;;;;;;;;;;5083323;28;20059;-60
2023/05/06 09:26:30;;;;;;;19.95;15.18;;;;;;;;;;5083945;28;20138;-60
2023/05/06 09:28:57;;;;;;;18.88;14.75;;;;;;;;;;5084216;28;20053;-60
2023/05/06 09:31:24;;;;;;;20.88;16.10;;;;;;;;;;5081116;28;20550;-60
2023/05/06 09:33:52;;;;;;;15.75;13.00;;;;;;;;;;5063508;28;20141;-61
2023/05/06 09:36:18;;;;;;;17.20;12.70;;;;;;;;;;5095790;28;20057;-60
2023/05/06 09:38:45;;;;;;;15.95;13.75;;;;;;;;;;5074385;28;20648;-61
2023/05/06 09:41:11;;;;;;;19.45;12.82;;;;;;;;;;5085334;28;20048;-61
2023/05/06 09:43:43;;;;;;;22.10;14.20;;;;;;;;;;5083652;28;20139;-60
2023/05/06 09:46:12;;;;;;;20.40;13.10;;;;;;;;;;5082980;28;20052;-59
2023/05/06 09:48:39;;;;;;;20.48;11.18;;;;;;;;;;5078868;28;20045;-61
2023/05/06 09:51:06;;;;;;;15.98;12.15;;;;;;;;;;5065877;28;20113;-60
2023/05/06 09:53:36;;;;;;;25.73;13.07;;;;;;;;;;5082845;28;20140;-58
2023/05/06 09:56:06;;;;;;;15.32;11.73;;;;;;;;;;5110528;27;20200;-61
2023/05/06 09:58:33;;;;;;;17.42;12.18;;;;;;;;;;5076202;28;20051;-61
2023/05/06 10:01:00;;;;;;;15.93;12.57;;;;;;;;;;5082973;28;20640;-60
2023/05/06 10:03:27;;;;;;;16.85;12.10;;;;;;;;;;5083525;28;20060;-60
2023/05/06 10:05:56;;;;;;;19.98;13.55;;;;;;;;;;5076613;28;20057;-61
2023/05/06 10:08:23;;;;;;;14.75;12.32;;;;;;;;;;5076084;28;20059;-60
2023/05/06 10:10:50;;;;;;;17.05;12.00;;;;;;;;;;5076383;28;20106;-61
2023/05/06 10:13:18;;;;;;;23.30;13.65;;;;;;;;;;5086796;28;20052;-61
2023/05/06 10:15:46;;;;;;;15.05;12.13;;;;;;;;;;5079185;28;20680;-61
2023/05/06 10:18:16;;;;;;;13.98;11.65;;;;;;;;;;5082323;28;20071;-58
2023/05/06 10:20:43;;;;;;;19.13;13.85;;;;;;;;;;5082881;28;20102;-60
2023/05/06 10:23:16;;;;;;;15.95;12.23;;;;;;;;;;5078824;28;20079;-61
2023/05/06 10:25:43;;;;;;;16.73;12.40;;;;;;;;;;5082814;28;20575;-62
2023/05/06 10:28:11;;;;;;;19.33;12.52;;;;;;;;;;5081207;28;20049;-61
2023/05/06 10:30:48;;;;;;;17.42;11.90;;;;;;;;;;5082057;28;20135;-62
2023/05/06 10:33:15;;;;;;;15.18;12.43;;;;;;;;;;5078185;28;20052;-60
2023/05/06 10:35:53;;;;;;;18.13;13.25;;;;;;;;;;5069081;28;20079;-60
2023/05/06 10:38:26;;;;;;;17.23;13.32;;;;;;;;;;5078958;28;20499;-60
2023/05/06 10:40:54;;;;;;;16.40;12.73;;;;;;;;;;5080689;28;20049;-60
2023/05/06 10:43:23;;;;;;;15.48;11.50;;;;;;;;;;5080960;28;20059;-60
2023/05/06 10:46:07;;;;;;;17.60;11.40;;;;;;;;;;5080280;28;20056;-60
2023/05/06 10:48:35;;;;;;;16.13;11.63;;;;;;;;;;5080641;28;20795;-61
2023/05/06 10:51:22;;;;;;;18.50;11.57;;;;;;;;;;5079521;28;20052;-60
2023/05/06 10:53:54;;;;;;;14.70;11.35;;;;;;;;;;5091451;28;20158;-60
2023/05/06 10:56:21;;;;;;;12.48;10.13;;;;;;;;;;5080886;28;20067;-61
2023/05/06 10:58:47;;;;;;;13.10;9.27;;;;;;;;;;5079396;28;20507;-58
2023/05/06 11:01:14;;;;;;;15.38;10.07;;;;;;;;;;5082188;28;20072;-60
2023/05/06 11:03:43;;;;;;;14.85;11.05;;;;;;;;;;5083015;28;20575;-60
2023/05/06 11:06:10;;;;;;;13.10;9.15;;;;;;;;;;5081251;28;20499;-61
2023/05/06 11:08:36;;;;;;;14.75;9.38;;;;;;;;;;5086070;28;20058;-61
2023/05/06 11:11:38;;;;;;;13.65;9.10;;;;;;;;;;5083378;28;20056;-60
2023/05/06 11:14:12;;;;;;;11.73;9.07;;;;;;;;;;5030448;28;20527;-61
2023/05/06 11:16:51;;;;;;;13.85;8.80;;;;;;;;;;5037959;28;20127;-61
2023/05/06 11:19:22;;;;;;;9.05;7.43;;;;;;;;;;5040683;28;20064;-60
2023/05/06 11:21:49;;;;;;;15.55;8.40;;;;;;;;;;5038684;28;20096;-60
2023/05/06 11:24:34;;;;;;;14.25;7.85;;;;;;;;;;5038688;28;20128;-61
2023/05/06 11:27:00;;;;;;;9.60;6.67;;;;;;;;;;5035984;28;20683;-61
2023/05/06 11:29:27;;;;;;;11.80;7.15;;;;;;;;;;5039316;28;20556;-60
2023/05/06 11:31:53;;;;;;;8.40;5.15;;;;;;;;;;5042487;28;20626;-61
2023/05/06 11:34:32;;;;;;;7.70;5.22;;;;;;;;;;5041130;28;20144;-61
2023/05/06 11:37:01;;;;;;;7.22;5.85;;;;;;;;;;5035861;28;20045;-60
2023/05/06 11:39:31;;;;;;;11.50;6.00;;;;;;;;;;5039982;28;20053;-60
2023/05/06 11:42:05;;;;;;;9.00;5.90;;;;;;;;;;5034625;28;20149;-60
2023/05/06 11:44:33;;;;;;;9.68;6.00;;;;;;;;;;5038178;28;20057;-61
2023/05/06 11:47:00;;;;;;;5.90;4.47;;;;;;;;;;5037313;28;20057;-61
2023/05/06 11:49:27;;;;;;;11.05;5.50;;;;;;;;;;5076752;28;20049;-60
2023/05/06 11:51:55;;;;;;;8.90;6.13;;;;;;;;;;5082339;28;20534;-62
2023/05/06 11:54:23;;;;;;;8.50;6.20;;;;;;;;;;5082405;28;20056;-59
2023/05/06 11:56:51;;;;;;;8.30;5.93;;;;;;;;;;5082646;28;20052;-61
2023/05/06 11:59:24;;;;;;;10.38;6.75;;;;;;;;;;5080140;28;20053;-61
2023/05/06 12:01:50;;;;;;;11.35;7.00;;;;;;;;;;5076971;28;20533;-60
2023/05/06 12:04:17;;;;;;;9.02;6.75;;;;;;;;;;5080019;28;20057;-61
2023/05/06 12:06:43;;;;;;;8.60;7.60;;;;;;;;;;5085707;28;20053;-61
2023/05/06 12:09:11;;;;;;;9.55;7.72;;;;;;;;;;5084508;28;20057;-61
2023/05/06 12:11:38;;;;;;;11.88;7.28;;;;;;;;;;5083459;28;20064;-61
2023/05/06 12:14:06;;;;;;;10.70;7.13;;;;;;;;;;5080214;28;20057;-61
2023/05/06 12:16:33;;;;;;;10.43;7.30;;;;;;;;;;5082305;28;20053;-60
2023/05/06 12:19:01;;;;;;;8.13;6.03;;;;;;;;;;5082869;28;20053;-61
2023/05/06 12:21:28;;;;;;;9.35;7.25;;;;;;;;;;5087106;28;20085;-60
2023/05/06 12:23:55;;;;;;;10.63;7.82;;;;;;;;;;5083348;28;20048;-61
2023/05/06 12:26:22;;;;;;;8.82;7.00;;;;;;;;;;5081803;28;20099;-61
2023/05/06 12:29:11;;;;;;;15.75;8.00;;;;;;;;;;5082768;28;20554;-61
2023/05/06 12:31:38;;;;;;;11.85;6.68;;;;;;;;;;5072019;28;20052;-61
2023/05/06 12:34:05;;;;;;;9.95;6.63;;;;;;;;;;5082720;28;20048;-60
2023/05/06 12:36:32;;;;;;;10.23;7.20;;;;;;;;;;5073191;28;20057;-61
2023/05/06 12:39:00;;;;;;;10.40;7.10;;;;;;;;;;5080177;28;20428;-60
2023/05/06 12:41:45;;;;;;;8.45;5.93;;;;;;;;;;5079404;28;20056;-60
2023/05/06 12:44:32;;;;;;;7.53;5.45;;;;;;;;;;5082136;28;20044;-60
2023/05/06 12:47:00;;;;;;;9.52;4.90;;;;;;;;;;5082299;28;20145;-57
2023/05/06 12:49:26;;;;;;;9.15;5.68;;;;;;;;;;5076711;28;20055;-61
2023/05/06 12:52:06;;;;;;;8.82;6.07;;;;;;;;;;5081650;28;20053;-61
2023/05/06 12:54:33;;;;;;;8.60;5.88;;;;;;;;;;5087967;28;20048;-60
2023/05/06 12:57:00;;;;;;;10.07;7.20;;;;;;;;;;5079846;28;20539;-60
2023/05/06 12:59:26;;;;;;;10.95;6.88;;;;;;;;;;5081764;28;20584;-61
2023/05/06 13:01:53;;;;;;;9.00;7.35;;;;;;;;;;5082585;28;20049;-61
2023/05/06 13:04:20;;;;;;;9.55;5.60;;;;;;;;;;5081345;28;20045;-61
2023/05/06 13:06:46;;;;;;;7.63;6.10;;;;;;;;;;5080095;28;20453;-61
2023/05/06 13:09:13;;;;;;;7.68;5.88;;;;;;;;;;5079346;28;20594;-59
2023/05/06 13:11:40;;;;;;;6.93;5.95;;;;;;;;;;5079483;28;20423;-60
2023/05/06 13:14:06;;;;;;;8.52;7.07;;;;;;;;;;5079173;28;20523;-60
2023/05/06 13:16:34;;;;;;;12.70;11.48;;;;;;;;;;5078940;28;20048;-61
2023/05/06 13:19:01;;;;;;;10.30;8.18;;;;;;;;;;5080413;28;20522;-58
2023/05/06 13:21:28;;;;;;;10.63;7.72;;;;;;;;;;5081311;28;20076;-58
2023/05/06 13:23:54;;;;;;;10.95;8.25;;;;;;;;;;5077601;27;20558;-57
2023/05/06 13:26:25;;;;;;;10.45;8.68;;;;;;;;;;5065557;28;20060;-60
2023/05/06 13:28:52;;;;;;;12.63;8.80;;;;;;;;;;5059721;28;20439;-61
2023/05/06 13:31:18;;;;;;;9.73;8.73;;;;;;;;;;5085924;28;20154;-59
2023/05/06 13:33:44;;;;;;;10.57;9.27;;;;;;;;;;5083035;28;20056;-61
2023/05/06 13:36:11;;;;;;;9.52;8.63;;;;;;;;;;5093826;28;20059;-60
2023/05/06 13:38:38;;;;;;;10.00;8.57;;;;;;;;;;5078414;28;20132;-61
2023/05/06 13:41:06;;;;;;;9.50;8.27;;;;;;;;;;5075183;28;20502;-61
2023/05/06 13:43:33;;;;;;;8.27;7.40;;;;;;;;;;5081245;28;20079;-61
2023/05/06 13:45:59;;;;;;;9.90;7.25;;;;;;;;;;5083112;28;20080;-60
2023/05/06 13:48:26;;;;;;;8.45;7.50;;;;;;;;;;5066093;28;20063;-61
2023/05/06 13:50:52;;;;;;;11.60;7.43;;;;;;;;;;5083349;28;20048;-61
2023/05/06 13:53:18;;;;;;;10.90;7.93;;;;;;;;;;5081910;28;20060;-60
2023/05/06 13:55:45;;;;;;;9.75;8.75;;;;;;;;;;5082373;28;20620;-60
2023/05/06 13:58:12;;;;;;;10.13;8.55;;;;;;;;;;5082807;28;20063;-58
2023/05/06 14:00:38;;;;;;;10.95;7.38;;;;;;;;;;5080555;28;20772;-61
2023/05/06 14:03:05;;;;;;;8.00;6.75;;;;;;;;;;5067509;28;20049;-61
2023/05/06 14:05:31;;;;;;;7.15;5.40;;;;;;;;;;5082384;28;20052;-60
2023/05/06 14:07:58;;;;;;;6.45;5.85;;;;;;;;;;5082544;28;20114;-59
2023/05/06 14:10:24;;;;;;;8.18;6.55;;;;;;;;;;5081458;28;20499;-60
2023/05/06 14:12:50;;;;;;;9.25;6.28;;;;;;;;;;5081082;28;20053;-60
2023/05/06 14:15:17;;;;;;;6.72;5.90;;;;;;;;;;5070363;28;20053;-60
2023/05/06 14:17:43;;;;;;;10.45;6.63;;;;;;;;;;5080882;28;20072;-60
2023/05/06 14:20:10;;;;;;;6.07;5.00;;;;;;;;;;5081017;28;20079;-59
2023/05/06 14:22:38;;;;;;;8.27;5.93;;;;;;;;;;5072885;28;20052;-60
2023/05/06 14:25:05;;;;;;;7.10;5.07;;;;;;;;;;5081085;28;20056;-61
2023/05/06 14:27:31;;;;;;;6.13;3.58;;;;;;;;;;5080954;28;20572;-60